sensor_id;sensor_type;location;lat;lon;timestamp;temperature;humidity
21275;DHT22;36472;52.170;20.884;2024-03-23T00:55:08;29.50;43.50
21275;DHT22;36472;52.170;20.884;2024-03-23T00:57:35;29.50;43.60
21275;DHT22;36472;52.170;20.884;2024-03-23T01:00:04;29.50;43.60
21275;DHT22;36472;52.170;20.884;2024-03-23T01:02:32;29.40;43.70
21275;DHT22;36472;52.170;20.884;2024-03-23T01:05:00;29.50;43.80
21275;DHT22;36472;52.170;20.884;2024-03-23T01:07:27;29.50;43.80
21275;DHT22;36472;52.170;20.884;2024-03-23T01:09:57;29.40;43.80
21275;DHT22;36472;52.170;20.884;2024-03-23T01:12:23;29.50;44.00
21275;DHT22;36472;52.170;20.884;2024-03-23T01:14:51;29.40;43.80
21275;DHT22;36472;52.170;20.884;2024-03-23T01:17:18;29.40;43.90
21275;DHT22;36472;52.170;20.884;2024-03-23T01:19:46;29.40;43.90
21275;DHT22;36472;52.170;20.884;2024-03-23T01:22:13;29.40;44.10
21275;DHT22;36472;52.170;20.884;2024-03-23T01:24:42;29.40;44.10
21275;DHT22;36472;52.170;20.884;2024-03-23T01:27:10;29.40;44.10
21275;DHT22;36472;52.170;20.884;2024-03-23T01:29:38;29.40;44.00
21275;DHT22;36472;52.170;20.884;2024-03-23T01:32:05;29.40;43.90
21275;DHT22;36472;52.170;20.884;2024-03-23T01:34:34;29.40;44.00
21275;DHT22;36472;52.170;20.884;2024-03-23T01:37:01;29.30;44.20
21275;DHT22;36472;52.170;20.884;2024-03-23T01:39:30;29.30;44.00
21275;DHT22;36472;52.170;20.884;2024-03-23T01:41:57;29.40;44.20
21275;DHT22;36472;52.170;20.884;2024-03-23T01:44:26;29.30;44.10
21275;DHT22;36472;52.170;20.884;2024-03-23T01:46:53;29.40;44.10
21275;DHT22;36472;52.170;20.884;2024-03-23T01:49:21;29.30;44.20
21275;DHT22;36472;52.170;20.884;2024-03-23T01:51:48;29.30;44.20
21275;DHT22;36472;52.170;20.884;2024-03-23T01:54:17;29.40;44.30
21275;DHT22;36472;52.170;20.884;2024-03-23T01:56:44;29.40;44.30
21275;DHT22;36472;52.170;20.884;2024-03-23T01:59:13;29.30;44.80
21275;DHT22;36472;52.170;20.884;2024-03-23T02:01:41;29.40;44.40
21275;DHT22;36472;52.170;20.884;2024-03-23T02:04:09;29.30;44.20
21275;DHT22;36472;52.170;20.884;2024-03-23T02:06:36;29.40;44.30
21275;DHT22;36472;52.170;20.884;2024-03-23T02:09:04;29.40;44.40
21275;DHT22;36472;52.170;20.884;2024-03-23T02:11:32;29.40;44.30
21275;DHT22;36472;52.170;20.884;2024-03-23T02:14:00;29.40;44.20
21275;DHT22;36472;52.170;20.884;2024-03-23T02:16:26;29.40;44.40
21275;DHT22;36472;52.170;20.884;2024-03-23T02:18:56;29.40;44.20
21275;DHT22;36472;52.170;20.884;2024-03-23T02:21:23;29.40;44.20
21275;DHT22;36472;52.170;20.884;2024-03-23T02:23:52;29.50;44.40
21275;DHT22;36472;52.170;20.884;2024-03-23T02:26:19;29.50;44.40
21275;DHT22;36472;52.170;20.884;2024-03-23T02:28:47;29.40;44.20
21275;DHT22;36472;52.170;20.884;2024-03-23T02:31:14;29.50;44.30
21275;DHT22;36472;52.170;20.884;2024-03-23T02:33:42;29.50;44.40
21275;DHT22;36472;52.170;20.884;2024-03-23T02:36:09;29.50;44.40
21275;DHT22;36472;52.170;20.884;2024-03-23T02:38:37;29.50;44.30
21275;DHT22;36472;52.170;20.884;2024-03-23T02:41:06;29.50;44.30
21275;DHT22;36472;52.170;20.884;2024-03-23T02:43:34;29.50;44.30
21275;DHT22;36472;52.170;20.884;2024-03-23T02:46:01;29.50;44.30
21275;DHT22;36472;52.170;20.884;2024-03-23T02:48:30;29.60;44.40
21275;DHT22;36472;52.170;20.884;2024-03-23T02:50:57;29.50;44.30
21275;DHT22;36472;52.170;20.884;2024-03-23T02:53:25;29.60;44.20
21275;DHT22;36472;52.170;20.884;2024-03-23T02:55:52;29.60;44.40
21275;DHT22;36472;52.170;20.884;2024-03-23T02:58:22;29.60;44.20
21275;DHT22;36472;52.170;20.884;2024-03-23T03:00:49;29.60;44.30
21275;DHT22;36472;52.170;20.884;2024-03-23T03:03:17;29.70;44.30
21275;DHT22;36472;52.170;20.884;2024-03-23T03:05:44;29.70;44.20
21275;DHT22;36472;52.170;20.884;2024-03-23T03:08:12;29.70;44.30
21275;DHT22;36472;52.170;20.884;2024-03-23T03:10:38;29.70;44.20
21275;DHT22;36472;52.170;20.884;2024-03-23T03:13:07;29.70;44.30
21275;DHT22;36472;52.170;20.884;2024-03-23T03:15:35;29.70;44.20
21275;DHT22;36472;52.170;20.884;2024-03-23T03:18:03;29.70;44.30
21275;DHT22;36472;52.170;20.884;2024-03-23T03:20:30;29.70;44.20
21275;DHT22;36472;52.170;20.884;2024-03-23T03:22:59;29.70;44.30
21275;DHT22;36472;52.170;20.884;2024-03-23T03:25:25;29.70;44.20
21275;DHT22;36472;52.170;20.884;2024-03-23T03:27:53;29.70;44.20
21275;DHT22;36472;52.170;20.884;2024-03-23T03:30:20;29.70;44.40
21275;DHT22;36472;52.170;20.884;2024-03-23T03:32:53;29.70;44.20
21275;DHT22;36472;52.170;20.884;2024-03-23T03:35:20;29.70;44.20
21275;DHT22;36472;52.170;20.884;2024-03-23T03:37:49;29.60;44.30
21275;DHT22;36472;52.170;20.884;2024-03-23T03:40:16;29.70;44.40
21275;DHT22;36472;52.170;20.884;2024-03-23T03:42:44;29.70;44.40
21275;DHT22;36472;52.170;20.884;2024-03-23T03:45:11;29.70;44.30
21275;DHT22;36472;52.170;20.884;2024-03-23T03:47:39;29.70;44.40
21275;DHT22;36472;52.170;20.884;2024-03-23T03:50:08;29.70;44.30
21275;DHT22;36472;52.170;20.884;2024-03-23T03:52:36;29.70;44.30
21275;DHT22;36472;52.170;20.884;2024-03-23T03:55:04;29.80;44.30
21275;DHT22;36472;52.170;20.884;2024-03-23T03:57:41;29.80;44.10
21275;DHT22;36472;52.170;20.884;2024-03-23T04:00:10;29.80;44.10
21275;DHT22;36472;52.170;20.884;2024-03-23T04:02:38;29.80;44.20
21275;DHT22;36472;52.170;20.884;2024-03-23T04:05:07;29.80;44.10
21275;DHT22;36472;52.170;20.884;2024-03-23T04:07:36;29.80;44.10
21275;DHT22;36472;52.170;20.884;2024-03-23T04:10:03;29.80;44.20
21275;DHT22;36472;52.170;20.884;2024-03-23T04:12:34;29.80;44.00
21275;DHT22;36472;52.170;20.884;2024-03-23T04:15:01;29.80;44.00
21275;DHT22;36472;52.170;20.884;2024-03-23T04:17:31;29.80;44.00
21275;DHT22;36472;52.170;20.884;2024-03-23T04:20:01;29.80;44.00
21275;DHT22;36472;52.170;20.884;2024-03-23T04:22:32;29.80;44.00
21275;DHT22;36472;52.170;20.884;2024-03-23T04:24:59;29.80;44.10
21275;DHT22;36472;52.170;20.884;2024-03-23T04:27:27;29.80;44.00
21275;DHT22;36472;52.170;20.884;2024-03-23T04:29:53;29.80;44.00
21275;DHT22;36472;52.170;20.884;2024-03-23T04:32:22;29.80;44.00
21275;DHT22;36472;52.170;20.884;2024-03-23T04:34:49;29.90;43.90
21275;DHT22;36472;52.170;20.884;2024-03-23T04:37:17;29.90;44.00
21275;DHT22;36472;52.170;20.884;2024-03-23T04:39:46;29.80;43.90
21275;DHT22;36472;52.170;20.884;2024-03-23T04:42:15;29.90;44.60
21275;DHT22;36472;52.170;20.884;2024-03-23T04:44:43;29.90;43.90
21275;DHT22;36472;52.170;20.884;2024-03-23T04:47:12;29.90;43.90
21275;DHT22;36472;52.170;20.884;2024-03-23T04:49:39;29.90;44.00
21275;DHT22;36472;52.170;20.884;2024-03-23T04:52:07;29.90;43.90
21275;DHT22;36472;52.170;20.884;2024-03-23T04:54:35;29.90;43.90
21275;DHT22;36472;52.170;20.884;2024-03-23T04:57:05;29.90;43.90
21275;DHT22;36472;52.170;20.884;2024-03-23T04:59:32;29.90;43.90
21275;DHT22;36472;52.170;20.884;2024-03-23T05:02:01;29.90;43.80
21275;DHT22;36472;52.170;20.884;2024-03-23T05:04:29;29.90;43.90
21275;DHT22;36472;52.170;20.884;2024-03-23T05:06:58;29.90;43.80
21275;DHT22;36472;52.170;20.884;2024-03-23T05:09:25;29.90;43.80
21275;DHT22;36472;52.170;20.884;2024-03-23T05:11:56;29.90;43.70
21275;DHT22;36472;52.170;20.884;2024-03-23T05:14:24;29.90;43.70
21275;DHT22;36472;52.170;20.884;2024-03-23T05:16:53;29.90;43.70
21275;DHT22;36472;52.170;20.884;2024-03-23T05:19:20;29.90;43.80
21275;DHT22;36472;52.170;20.884;2024-03-23T05:21:49;29.90;43.80
21275;DHT22;36472;52.170;20.884;2024-03-23T05:24:15;30.00;43.80
21275;DHT22;36472;52.170;20.884;2024-03-23T05:26:44;30.00;43.90
21275;DHT22;36472;52.170;20.884;2024-03-23T05:29:11;30.00;43.80
21275;DHT22;36472;52.170;20.884;2024-03-23T05:31:42;30.00;43.70
21275;DHT22;36472;52.170;20.884;2024-03-23T05:34:09;30.00;43.80
21275;DHT22;36472;52.170;20.884;2024-03-23T05:36:37;30.00;43.80
21275;DHT22;36472;52.170;20.884;2024-03-23T05:39:04;30.00;43.70
21275;DHT22;36472;52.170;20.884;2024-03-23T05:41:32;30.00;43.80
21275;DHT22;36472;52.170;20.884;2024-03-23T05:43:59;30.00;43.70
21275;DHT22;36472;52.170;20.884;2024-03-23T05:46:28;30.00;43.90
21275;DHT22;36472;52.170;20.884;2024-03-23T05:49:01;30.00;43.80
21275;DHT22;36472;52.170;20.884;2024-03-23T05:51:30;30.00;43.70
21275;DHT22;36472;52.170;20.884;2024-03-23T05:53:57;30.00;43.90
21275;DHT22;36472;52.170;20.884;2024-03-23T05:56:25;30.00;43.70
21275;DHT22;36472;52.170;20.884;2024-03-23T05:58:52;30.10;43.70
21275;DHT22;36472;52.170;20.884;2024-03-23T06:01:20;30.10;43.80
21275;DHT22;36472;52.170;20.884;2024-03-23T06:03:47;30.10;43.70
21275;DHT22;36472;52.170;20.884;2024-03-23T06:06:17;30.10;43.90
21275;DHT22;36472;52.170;20.884;2024-03-23T06:08:44;30.10;43.70
21275;DHT22;36472;52.170;20.884;2024-03-23T06:11:12;30.10;43.70
21275;DHT22;36472;52.170;20.884;2024-03-23T06:13:39;30.10;43.70
21275;DHT22;36472;52.170;20.884;2024-03-23T06:16:07;30.10;43.80
21275;DHT22;36472;52.170;20.884;2024-03-23T06:18:34;30.10;43.60
21275;DHT22;36472;52.170;20.884;2024-03-23T06:21:02;30.20;43.70
21275;DHT22;36472;52.170;20.884;2024-03-23T06:23:31;30.20;43.70
21275;DHT22;36472;52.170;20.884;2024-03-23T06:25:59;30.20;43.70
21275;DHT22;36472;52.170;20.884;2024-03-23T06:28:26;30.20;43.80
21275;DHT22;36472;52.170;20.884;2024-03-23T06:30:54;30.20;43.70
21275;DHT22;36472;52.170;20.884;2024-03-23T06:33:21;30.20;43.70
21275;DHT22;36472;52.170;20.884;2024-03-23T06:35:50;30.20;43.70
21275;DHT22;36472;52.170;20.884;2024-03-23T06:38:18;30.20;43.70
21275;DHT22;36472;52.170;20.884;2024-03-23T06:40:48;30.20;43.70
21275;DHT22;36472;52.170;20.884;2024-03-23T06:43:17;30.20;43.70
21275;DHT22;36472;52.170;20.884;2024-03-23T06:45:52;30.20;43.70
21275;DHT22;36472;52.170;20.884;2024-03-23T06:48:19;30.20;43.60
21275;DHT22;36472;52.170;20.884;2024-03-23T06:50:47;30.20;43.80
21275;DHT22;36472;52.170;20.884;2024-03-23T06:53:15;30.20;43.70
21275;DHT22;36472;52.170;20.884;2024-03-23T06:55:51;30.20;43.90
21275;DHT22;36472;52.170;20.884;2024-03-23T06:58:19;30.20;43.90
21275;DHT22;36472;52.170;20.884;2024-03-23T07:00:48;30.20;43.80
21275;DHT22;36472;52.170;20.884;2024-03-23T07:03:16;30.20;43.90
21275;DHT22;36472;52.170;20.884;2024-03-23T07:05:45;30.20;44.00
21275;DHT22;36472;52.170;20.884;2024-03-23T07:08:12;30.20;43.90
21275;DHT22;36472;52.170;20.884;2024-03-23T07:10:45;30.20;43.90
21275;DHT22;36472;52.170;20.884;2024-03-23T07:13:14;30.20;44.00
21275;DHT22;36472;52.170;20.884;2024-03-23T07:15:43;30.20;44.00
21275;DHT22;36472;52.170;20.884;2024-03-23T07:18:17;30.20;44.00
21275;DHT22;36472;52.170;20.884;2024-03-23T07:20:52;30.20;44.00
21275;DHT22;36472;52.170;20.884;2024-03-23T07:23:21;30.10;44.00
21275;DHT22;36472;52.170;20.884;2024-03-23T07:25:56;30.10;44.00
21275;DHT22;36472;52.170;20.884;2024-03-23T07:28:26;30.10;44.10
21275;DHT22;36472;52.170;20.884;2024-03-23T07:31:02;30.10;44.20
21275;DHT22;36472;52.170;20.884;2024-03-23T07:33:31;30.20;44.30
21275;DHT22;36472;52.170;20.884;2024-03-23T07:35:59;30.10;44.00
21275;DHT22;36472;52.170;20.884;2024-03-23T07:38:27;30.20;44.20
21275;DHT22;36472;52.170;20.884;2024-03-23T07:41:05;30.20;44.20
21275;DHT22;36472;52.170;20.884;2024-03-23T07:43:37;30.20;44.70
21275;DHT22;36472;52.170;20.884;2024-03-23T07:46:05;30.20;44.10
21275;DHT22;36472;52.170;20.884;2024-03-23T07:48:33;30.20;44.10
21275;DHT22;36472;52.170;20.884;2024-03-23T07:51:01;30.20;44.10
21275;DHT22;36472;52.170;20.884;2024-03-23T07:53:31;30.20;44.20
21275;DHT22;36472;52.170;20.884;2024-03-23T07:56:00;30.20;44.00
21275;DHT22;36472;52.170;20.884;2024-03-23T07:58:29;30.20;44.00
21275;DHT22;36472;52.170;20.884;2024-03-23T08:01:04;30.30;44.50
21275;DHT22;36472;52.170;20.884;2024-03-23T08:03:34;30.10;44.20
21275;DHT22;36472;52.170;20.884;2024-03-23T08:06:08;30.20;44.60
21275;DHT22;36472;52.170;20.884;2024-03-23T08:08:38;30.20;44.50
21275;DHT22;36472;52.170;20.884;2024-03-23T08:11:06;30.20;44.30
21275;DHT22;36472;52.170;20.884;2024-03-23T08:13:34;30.30;44.40
21275;DHT22;36472;52.170;20.884;2024-03-23T08:16:04;30.30;44.30
21275;DHT22;36472;52.170;20.884;2024-03-23T08:18:32;30.30;44.50
21275;DHT22;36472;52.170;20.884;2024-03-23T08:21:00;30.30;44.10
21275;DHT22;36472;52.170;20.884;2024-03-23T08:23:30;30.40;44.50
21275;DHT22;36472;52.170;20.884;2024-03-23T08:26:00;30.40;44.50
21275;DHT22;36472;52.170;20.884;2024-03-23T08:28:29;30.40;44.30
21275;DHT22;36472;52.170;20.884;2024-03-23T08:30:56;30.40;44.60
21275;DHT22;36472;52.170;20.884;2024-03-23T08:33:29;30.50;44.80
21275;DHT22;36472;52.170;20.884;2024-03-23T08:35:58;30.50;44.60
21275;DHT22;36472;52.170;20.884;2024-03-23T08:38:27;30.50;44.60
21275;DHT22;36472;52.170;20.884;2024-03-23T08:40:59;30.60;44.80
21275;DHT22;36472;52.170;20.884;2024-03-23T08:43:29;30.70;45.20
21275;DHT22;36472;52.170;20.884;2024-03-23T08:46:03;30.70;44.90
21275;DHT22;36472;52.170;20.884;2024-03-23T08:48:34;30.70;44.10
21275;DHT22;36472;52.170;20.884;2024-03-23T08:51:03;30.80;44.60
21275;DHT22;36472;52.170;20.884;2024-03-23T08:53:32;30.90;45.40
21275;DHT22;36472;52.170;20.884;2024-03-23T08:56:00;31.00;45.00
21275;DHT22;36472;52.170;20.884;2024-03-23T08:58:30;31.10;44.90
21275;DHT22;36472;52.170;20.884;2024-03-23T09:01:03;31.10;44.20
21275;DHT22;36472;52.170;20.884;2024-03-23T09:03:33;31.20;44.30
21275;DHT22;36472;52.170;20.884;2024-03-23T09:06:02;31.30;44.70
21275;DHT22;36472;52.170;20.884;2024-03-23T09:08:34;31.30;44.70
21275;DHT22;36472;52.170;20.884;2024-03-23T09:11:04;31.30;44.80
21275;DHT22;36472;52.170;20.884;2024-03-23T09:13:33;31.40;45.10
21275;DHT22;36472;52.170;20.884;2024-03-23T09:16:01;31.50;44.50
21275;DHT22;36472;52.170;20.884;2024-03-23T09:18:31;31.40;43.30
21275;DHT22;36472;52.170;20.884;2024-03-23T09:21:01;31.50;44.00
21275;DHT22;36472;52.170;20.884;2024-03-23T09:23:29;31.50;43.70
21275;DHT22;36472;52.170;20.884;2024-03-23T09:25:56;31.50;43.50
21275;DHT22;36472;52.170;20.884;2024-03-23T09:28:24;31.50;43.50
21275;DHT22;36472;52.170;20.884;2024-03-23T09:30:51;31.60;43.70
21275;DHT22;36472;52.170;20.884;2024-03-23T09:33:19;31.70;44.10
21275;DHT22;36472;52.170;20.884;2024-03-23T09:35:46;31.70;43.30
21275;DHT22;36472;52.170;20.884;2024-03-23T09:38:15;31.80;44.10
21275;DHT22;36472;52.170;20.884;2024-03-23T09:40:43;31.90;43.20
21275;DHT22;36472;52.170;20.884;2024-03-23T09:43:12;31.90;43.80
21275;DHT22;36472;52.170;20.884;2024-03-23T09:45:40;32.00;42.90
21275;DHT22;36472;52.170;20.884;2024-03-23T09:48:10;32.10;43.40
21275;DHT22;36472;52.170;20.884;2024-03-23T09:50:37;32.10;43.20
21275;DHT22;36472;52.170;20.884;2024-03-23T09:53:07;32.10;42.80
21275;DHT22;36472;52.170;20.884;2024-03-23T09:55:36;32.20;43.20
21275;DHT22;36472;52.170;20.884;2024-03-23T09:58:04;32.10;41.90
21275;DHT22;36472;52.170;20.884;2024-03-23T10:00:32;32.10;43.20
21275;DHT22;36472;52.170;20.884;2024-03-23T10:03:01;32.10;41.60
21275;DHT22;36472;52.170;20.884;2024-03-23T10:05:30;32.00;41.30
21275;DHT22;36472;52.170;20.884;2024-03-23T10:08:00;32.20;43.00
21275;DHT22;36472;52.170;20.884;2024-03-23T10:10:47;32.30;42.70
21275;DHT22;36472;52.170;20.884;2024-03-23T10:13:25;32.30;41.10
21275;DHT22;36472;52.170;20.884;2024-03-23T10:15:58;32.40;41.20
21275;DHT22;36472;52.170;20.884;2024-03-23T10:18:26;32.40;40.80
21275;DHT22;36472;52.170;20.884;2024-03-23T10:21:07;32.60;42.00
21275;DHT22;36472;52.170;20.884;2024-03-23T10:23:36;32.80;40.20
21275;DHT22;36472;52.170;20.884;2024-03-23T10:26:17;33.00;39.40
21275;DHT22;36472;52.170;20.884;2024-03-23T10:28:52;33.00;39.60
21275;DHT22;36472;52.170;20.884;2024-03-23T10:31:23;33.20;39.40
21275;DHT22;36472;52.170;20.884;2024-03-23T10:33:51;33.20;39.20
21275;DHT22;36472;52.170;20.884;2024-03-23T10:36:21;33.40;40.60
21275;DHT22;36472;52.170;20.884;2024-03-23T10:38:50;33.60;40.00
21275;DHT22;36472;52.170;20.884;2024-03-23T10:41:20;33.60;39.00
21275;DHT22;36472;52.170;20.884;2024-03-23T10:43:48;33.80;39.30
21275;DHT22;36472;52.170;20.884;2024-03-23T10:46:17;34.00;38.80
21275;DHT22;36472;52.170;20.884;2024-03-23T10:48:44;34.10;38.10
21275;DHT22;36472;52.170;20.884;2024-03-23T14:38:24;33.90;37.10
21275;DHT22;36472;52.170;20.884;2024-03-23T14:40:52;33.90;37.70
21275;DHT22;36472;52.170;20.884;2024-03-23T14:43:19;33.90;38.10
21275;DHT22;36472;52.170;20.884;2024-03-23T14:46:06;33.90;38.20
21275;DHT22;36472;52.170;20.884;2024-03-23T14:48:34;33.90;38.10
21275;DHT22;36472;52.170;20.884;2024-03-23T14:51:04;33.90;38.80
21275;DHT22;36472;52.170;20.884;2024-03-23T14:53:33;33.90;39.60
21275;DHT22;36472;52.170;20.884;2024-03-23T14:56:03;33.80;40.20
21275;DHT22;36472;52.170;20.884;2024-03-23T14:58:30;33.80;40.10
21275;DHT22;36472;52.170;20.884;2024-03-23T15:01:02;33.70;40.90
21275;DHT22;36472;52.170;20.884;2024-03-23T15:03:30;33.60;41.00
21275;DHT22;36472;52.170;20.884;2024-03-23T15:05:59;33.50;40.90
21275;DHT22;36472;52.170;20.884;2024-03-23T15:08:26;33.20;40.80
21275;DHT22;36472;52.170;20.884;2024-03-23T15:10:58;33.00;41.50
21275;DHT22;36472;52.170;20.884;2024-03-23T15:13:26;32.80;42.20
21275;DHT22;36472;52.170;20.884;2024-03-23T15:15:54;32.60;42.50
21275;DHT22;36472;52.170;20.884;2024-03-23T15:18:20;32.40;42.90
21275;DHT22;36472;52.170;20.884;2024-03-23T15:20:53;32.20;43.60
21275;DHT22;36472;52.170;20.884;2024-03-23T15:23:21;32.00;43.90
21275;DHT22;36472;52.170;20.884;2024-03-23T15:25:54;31.80;44.50
21275;DHT22;36472;52.170;20.884;2024-03-23T15:28:23;31.70;45.00
21275;DHT22;36472;52.170;20.884;2024-03-23T15:30:59;31.50;44.90
21275;DHT22;36472;52.170;20.884;2024-03-23T15:33:26;31.40;45.40
21275;DHT22;36472;52.170;20.884;2024-03-23T15:35:58;31.20;45.50
21275;DHT22;36472;52.170;20.884;2024-03-23T15:38:25;31.00;45.80
21275;DHT22;36472;52.170;20.884;2024-03-23T15:40:53;30.90;46.00
21275;DHT22;36472;52.170;20.884;2024-03-23T15:43:22;30.90;46.20
21275;DHT22;36472;52.170;20.884;2024-03-23T15:45:57;30.90;46.50
21275;DHT22;36472;52.170;20.884;2024-03-23T15:48:26;30.90;46.70
21275;DHT22;36472;52.170;20.884;2024-03-23T15:50:56;30.90;46.70
21275;DHT22;36472;52.170;20.884;2024-03-23T15:53:25;30.90;46.70
21275;DHT22;36472;52.170;20.884;2024-03-23T15:55:54;31.00;46.80
21275;DHT22;36472;52.170;20.884;2024-03-23T15:58:23;31.00;46.40
21275;DHT22;36472;52.170;20.884;2024-03-23T16:00:55;31.00;46.40
21275;DHT22;36472;52.170;20.884;2024-03-23T16:03:22;31.00;46.30
21275;DHT22;36472;52.170;20.884;2024-03-23T16:05:51;31.00;46.00
21275;DHT22;36472;52.170;20.884;2024-03-23T16:08:18;31.00;46.30
21275;DHT22;36472;52.170;20.884;2024-03-23T16:10:46;30.90;46.20
21275;DHT22;36472;52.170;20.884;2024-03-23T16:13:14;30.90;46.00
21275;DHT22;36472;52.170;20.884;2024-03-23T16:15:44;30.90;46.10
21275;DHT22;36472;52.170;20.884;2024-03-23T16:18:11;30.90;46.20
21275;DHT22;36472;52.170;20.884;2024-03-23T16:20:39;30.90;46.20
21275;DHT22;36472;52.170;20.884;2024-03-23T16:23:06;30.90;46.30
21275;DHT22;36472;52.170;20.884;2024-03-23T16:25:34;30.90;46.30
21275;DHT22;36472;52.170;20.884;2024-03-23T16:28:05;30.90;45.80
21275;DHT22;36472;52.170;20.884;2024-03-23T16:30:33;30.90;45.90
21275;DHT22;36472;52.170;20.884;2024-03-23T16:33:01;30.90;45.90
21275;DHT22;36472;52.170;20.884;2024-03-23T16:35:33;30.90;45.70
21275;DHT22;36472;52.170;20.884;2024-03-23T16:38:01;31.00;45.80
21275;DHT22;36472;52.170;20.884;2024-03-23T16:40:28;31.00;45.80
21275;DHT22;36472;52.170;20.884;2024-03-23T16:42:55;31.00;45.80
21275;DHT22;36472;52.170;20.884;2024-03-23T16:45:23;31.00;45.60
21275;DHT22;36472;52.170;20.884;2024-03-23T16:52:25;31.00;45.40
21275;DHT22;36472;52.170;20.884;2024-03-23T16:54:53;31.00;45.20
21275;DHT22;36472;52.170;20.884;2024-03-23T16:57:21;31.00;45.20
21275;DHT22;36472;52.170;20.884;2024-03-23T16:59:48;31.00;45.20
21275;DHT22;36472;52.170;20.884;2024-03-23T17:06:49;30.90;45.10
21275;DHT22;36472;52.170;20.884;2024-03-23T17:09:18;30.90;45.00
21275;DHT22;36472;52.170;20.884;2024-03-23T17:11:45;30.90;45.20
21275;DHT22;36472;52.170;20.884;2024-03-23T17:14:15;30.80;45.00
21275;DHT22;36472;52.170;20.884;2024-03-23T17:16:42;30.80;45.10
21275;DHT22;36472;52.170;20.884;2024-03-23T17:19:11;30.80;44.90
21275;DHT22;36472;52.170;20.884;2024-03-23T17:21:38;30.80;44.80
21275;DHT22;36472;52.170;20.884;2024-03-23T17:24:06;30.80;45.00
21275;DHT22;36472;52.170;20.884;2024-03-23T17:26:36;30.80;45.00
21275;DHT22;36472;52.170;20.884;2024-03-23T17:29:04;30.80;45.00
21275;DHT22;36472;52.170;20.884;2024-03-23T17:31:32;30.70;45.00
21275;DHT22;36472;52.170;20.884;2024-03-23T17:38:33;30.70;45.00
21275;DHT22;36472;52.170;20.884;2024-03-23T17:41:03;30.70;44.90
21275;DHT22;36472;52.170;20.884;2024-03-23T17:48:05;30.70;44.70
21275;DHT22;36472;52.170;20.884;2024-03-23T17:50:34;30.70;44.90
21275;DHT22;36472;52.170;20.884;2024-03-23T17:53:01;30.60;44.80
21275;DHT22;36472;52.170;20.884;2024-03-23T17:55:29;30.50;44.60
21275;DHT22;36472;52.170;20.884;2024-03-23T18:02:38;30.10;43.90
21275;DHT22;36472;52.170;20.884;2024-03-23T18:05:08;30.00;44.60
21275;DHT22;36472;52.170;20.884;2024-03-23T18:07:35;29.90;44.60
21275;DHT22;36472;52.170;20.884;2024-03-23T18:10:03;29.80;44.70
21275;DHT22;36472;52.170;20.884;2024-03-23T18:12:32;29.60;44.50
21275;DHT22;36472;52.170;20.884;2024-03-23T18:15:00;29.40;44.70
21275;DHT22;36472;52.170;20.884;2024-03-23T18:17:31;29.40;44.70
21275;DHT22;36472;52.170;20.884;2024-03-23T18:19:58;29.50;45.00
21275;DHT22;36472;52.170;20.884;2024-03-23T18:22:27;29.10;44.60
21275;DHT22;36472;52.170;20.884;2024-03-23T18:24:55;29.00;45.00
21275;DHT22;36472;52.170;20.884;2024-03-23T18:27:23;29.10;45.50
21275;DHT22;36472;52.170;20.884;2024-03-23T18:29:51;29.00;44.90
21275;DHT22;36472;52.170;20.884;2024-03-23T18:32:18;28.20;44.00
21275;DHT22;36472;52.170;20.884;2024-03-23T18:34:46;27.60;44.20
21275;DHT22;36472;52.170;20.884;2024-03-23T18:37:13;27.30;44.90
21275;DHT22;36472;52.170;20.884;2024-03-23T18:43:53;26.90;45.20
21275;DHT22;36472;52.170;20.884;2024-03-23T18:46:21;26.50;45.30
21275;DHT22;36472;52.170;20.884;2024-03-23T18:48:50;26.30;45.00
21275;DHT22;36472;52.170;20.884;2024-03-23T18:51:18;26.20;45.00
21275;DHT22;36472;52.170;20.884;2024-03-23T18:53:46;25.90;45.90
21275;DHT22;36472;52.170;20.884;2024-03-23T18:56:15;25.80;44.80
21275;DHT22;36472;52.170;20.884;2024-03-23T18:58:42;25.40;44.50
21275;DHT22;36472;52.170;20.884;2024-03-23T19:01:11;25.10;44.70
21275;DHT22;36472;52.170;20.884;2024-03-23T19:03:39;25.40;44.90
21275;DHT22;36472;52.170;20.884;2024-03-23T19:06:06;25.30;44.10
21275;DHT22;36472;52.170;20.884;2024-03-23T19:08:33;24.70;43.70
21275;DHT22;36472;52.170;20.884;2024-03-23T19:11:02;24.50;43.90
21275;DHT22;36472;52.170;20.884;2024-03-23T19:13:30;24.40;43.60
21275;DHT22;36472;52.170;20.884;2024-03-23T19:16:00;24.00;43.70
21275;DHT22;36472;52.170;20.884;2024-03-23T19:18:31;23.70;43.40
21275;DHT22;36472;52.170;20.884;2024-03-23T19:20:59;23.60;43.90
21275;DHT22;36472;52.170;20.884;2024-03-23T19:23:27;23.70;44.60
21275;DHT22;36472;52.170;20.884;2024-03-23T19:25:56;23.70;44.80
21275;DHT22;36472;52.170;20.884;2024-03-23T19:28:25;23.70;45.00
21275;DHT22;36472;52.170;20.884;2024-03-23T19:30:55;23.90;45.20
21275;DHT22;36472;52.170;20.884;2024-03-23T19:33:24;24.00;45.10
21275;DHT22;36472;52.170;20.884;2024-03-23T19:35:57;23.90;44.70
21275;DHT22;36472;52.170;20.884;2024-03-23T19:38:24;23.60;44.30
21275;DHT22;36472;52.170;20.884;2024-03-23T19:40:53;23.90;44.30
21275;DHT22;36472;52.170;20.884;2024-03-23T19:43:20;24.10;44.40
21275;DHT22;36472;52.170;20.884;2024-03-23T19:45:48;24.10;44.60
21275;DHT22;36472;52.170;20.884;2024-03-23T19:48:16;23.90;44.50
21275;DHT22;36472;52.170;20.884;2024-03-23T19:55:19;24.20;44.50
21275;DHT22;36472;52.170;20.884;2024-03-23T19:57:46;24.50;43.50
21275;DHT22;36472;52.170;20.884;2024-03-23T20:00:14;24.30;43.00
21275;DHT22;36472;52.170;20.884;2024-03-23T20:02:44;24.30;43.20
21275;DHT22;36472;52.170;20.884;2024-03-23T20:05:12;24.30;43.30
21275;DHT22;36472;52.170;20.884;2024-03-23T20:07:39;23.90;43.20
21275;DHT22;36472;52.170;20.884;2024-03-23T20:10:08;24.00;43.00
21275;DHT22;36472;52.170;20.884;2024-03-23T20:12:38;23.90;42.80
21275;DHT22;36472;52.170;20.884;2024-03-23T20:15:06;23.70;42.90
21275;DHT22;36472;52.170;20.884;2024-03-23T20:17:36;23.60;43.40
21275;DHT22;36472;52.170;20.884;2024-03-23T20:20:06;23.20;43.10
21275;DHT22;36472;52.170;20.884;2024-03-23T20:22:35;22.90;43.70
21275;DHT22;36472;52.170;20.884;2024-03-23T20:25:02;23.30;43.90
21275;DHT22;36472;52.170;20.884;2024-03-23T20:27:30;23.60;43.60
21275;DHT22;36472;52.170;20.884;2024-03-23T20:29:59;23.50;43.20
21275;DHT22;36472;52.170;20.884;2024-03-23T20:32:26;23.50;43.40
21275;DHT22;36472;52.170;20.884;2024-03-23T20:34:54;23.50;42.60
21275;DHT22;36472;52.170;20.884;2024-03-23T20:37:21;23.30;42.50